Time;durP1;ratioP1;P1;durP2;ratioP2;P2;SDS_P1;SDS_P2;PMS_P1;PMS_P2;Temp;Humidity;BMP_temperature;BMP_pressure;BME280_temperature;BME280_humidity;BME280_pressure;Samples;Min_cycle;Max_cycle;Signal;HPM_P1;HPM_P2
2023/08/05 00:01:59;;;;;;;;;;;21.20;68.80;;;;;;4996547;28;1023;-73
2023/08/05 00:04:25;;;;;;;;;;;21.20;68.80;;;;;;4993105;28;1366;-73
2023/08/05 00:06:50;;;;;;;;;;;21.20;68.80;;;;;;4986823;28;1050;-73
2023/08/05 00:09:15;;;;;;;;;;;21.20;68.80;;;;;;4992183;28;851;-73
2023/08/05 00:11:41;;;;;;;;;;;21.20;68.80;;;;;;4996649;28;869;-73
2023/08/05 00:14:06;;;;;;;;;;;21.20;68.80;;;;;;4996073;28;1280;-75
2023/08/05 00:16:32;;;;;;;;;;;21.20;68.90;;;;;;4994184;28;1899;-74
2023/08/05 00:18:57;;;;;;;;;;;21.20;68.90;;;;;;4998421;28;1290;-75
2023/08/05 00:21:23;;;;;;;;;;;21.20;68.90;;;;;;4997258;28;1007;-74
2023/08/05 00:23:48;;;;;;;;;;;21.20;68.90;;;;;;4997695;28;1350;-75
2023/08/05 00:26:14;;;;;;;;;;;21.20;68.90;;;;;;5001096;28;904;-74
2023/08/05 00:28:39;;;;;;;;;;;21.20;68.90;;;;;;5000587;28;1064;-74
2023/08/05 00:31:08;;;;;;;;;;;21.20;68.90;;;;;;4998321;28;968;-75
2023/08/05 00:33:34;;;;;;;;;;;21.20;68.90;;;;;;4999969;28;1259;-74
2023/08/05 00:35:59;;;;;;;;;;;21.20;68.90;;;;;;4994807;28;852;-74
2023/08/05 00:38:25;;;;;;;;;;;21.20;68.90;;;;;;4997683;28;1934;-75
2023/08/05 00:40:50;;;;;;;;;;;21.20;68.90;;;;;;5000554;28;1324;-74
2023/08/05 00:43:16;;;;;;;;;;;21.20;68.90;;;;;;4997279;28;1378;-74
2023/08/05 00:45:41;;;;;;;;;;;21.20;68.90;;;;;;5000506;28;833;-74
2023/08/05 00:48:07;;;;;;;;;;;21.20;68.90;;;;;;4997836;28;908;-74
2023/08/05 00:50:32;;;;;;;;;;;21.20;69.00;;;;;;5001921;28;864;-74
2023/08/05 00:52:58;;;;;;;;;;;21.20;68.90;;;;;;5002129;28;808;-73
2023/08/05 00:55:23;;;;;;;;;;;21.20;69.70;;;;;;5004547;28;1200;-74
2023/08/05 00:57:49;;;;;;;;;;;21.20;69.00;;;;;;4998864;28;1974;-74
2023/08/05 01:00:14;;;;;;;;;;;21.20;68.90;;;;;;5001013;28;846;-74
2023/08/05 01:02:40;;;;;;;;;;;21.20;68.90;;;;;;5000367;28;928;-74
2023/08/05 01:05:05;;;;;;;;;;;21.20;68.90;;;;;;5001714;28;1281;-76
2023/08/05 01:07:32;;;;;;;;;;;21.20;69.00;;;;;;4986307;28;1015;-75
2023/08/05 01:09:58;;;;;;;;;;;21.20;69.00;;;;;;5005173;28;903;-73
2023/08/05 01:12:23;;;;;;;;;;;21.20;69.00;;;;;;5000353;28;921;-73
2023/08/05 01:14:49;;;;;;;;;;;21.20;69.00;;;;;;4998402;28;1375;-76
2023/08/05 01:17:15;;;;;;;;;;;21.20;69.00;;;;;;5000413;28;1902;-73
2023/08/05 01:19:40;;;;;;;;;;;21.20;69.00;;;;;;5001238;28;1352;-74
2023/08/05 01:22:06;;;;;;;;;;;21.20;69.00;;;;;;4984884;28;1034;-73
2023/08/05 01:24:34;;;;;;;;;;;21.20;69.00;;;;;;5002485;28;1268;-74
2023/08/05 01:27:00;;;;;;;;;;;21.20;69.00;;;;;;5001559;28;1334;-74
2023/08/05 01:29:25;;;;;;;;;;;21.20;69.10;;;;;;4988094;28;880;-74
2023/08/05 01:31:51;;;;;;;;;;;21.20;69.10;;;;;;4999385;28;781;-74
2023/08/05 01:34:16;;;;;;;;;;;21.20;69.00;;;;;;4985575;28;1382;-74
2023/08/05 01:36:42;;;;;;;;;;;21.20;69.00;;;;;;4998772;28;1939;-74
2023/08/05 01:39:07;;;;;;;;;;;21.20;69.10;;;;;;4999690;28;786;-74
2023/08/05 01:41:33;;;;;;;;;;;21.20;69.10;;;;;;4999636;28;917;-74
2023/08/05 01:43:58;;;;;;;;;;;21.20;69.10;;;;;;4986151;28;1372;-74
2023/08/05 01:46:23;;;;;;;;;;;21.20;69.10;;;;;;5001881;28;865;-75
2023/08/05 01:48:49;;;;;;;;;;;21.20;69.10;;;;;;4997053;28;1092;-73
2023/08/05 01:51:14;;;;;;;;;;;21.20;69.10;;;;;;4999928;28;912;-73
2023/08/05 01:53:40;;;;;;;;;;;21.20;69.10;;;;;;4991518;28;1384;-74
2023/08/05 01:56:05;;;;;;;;;;;21.20;69.10;;;;;;5003750;28;1444;-74
2023/08/05 01:58:31;;;;;;;;;;;21.20;69.10;;;;;;4999833;28;1906;-74
2023/08/05 02:00:56;;;;;;;;;;;21.20;69.10;;;;;;4999129;28;1512;-74
2023/08/05 02:03:22;;;;;;;;;;;21.20;69.10;;;;;;4999656;28;1241;-74
2023/08/05 02:05:47;;;;;;;;;;;21.20;69.10;;;;;;4999857;28;893;-76
2023/08/05 02:08:13;;;;;;;;;;;21.20;69.10;;;;;;5002344;28;1094;-75
2023/08/05 02:10:39;;;;;;;;;;;21.20;69.20;;;;;;4989488;28;856;-76
2023/08/05 02:13:05;;;;;;;;;;;21.20;69.20;;;;;;5002173;28;809;-75
2023/08/05 02:15:30;;;;;;;;;;;21.20;70.00;;;;;;5001983;28;1178;-74
2023/08/05 02:17:56;;;;;;;;;;;21.20;69.10;;;;;;5003102;28;1910;-76
2023/08/05 02:20:21;;;;;;;;;;;21.20;69.20;;;;;;4988236;28;1372;-74
2023/08/05 02:22:47;;;;;;;;;;;21.20;69.20;;;;;;4999415;28;904;-75
2023/08/05 02:25:12;;;;;;;;;;;21.20;69.20;;;;;;4998799;28;1289;-77
2023/08/05 02:27:37;;;;;;;;;;;21.20;69.20;;;;;;5003063;28;1324;-75
2023/08/05 02:30:03;;;;;;;;;;;21.20;69.20;;;;;;4987641;28;904;-76
2023/08/05 02:32:28;;;;;;;;;;;21.20;69.20;;;;;;5003974;28;820;-76
2023/08/05 02:34:54;;;;;;;;;;;21.20;69.20;;;;;;4989664;28;1257;-76
2023/08/05 02:37:19;;;;;;;;;;;21.20;69.30;;;;;;5000190;28;1902;-76
2023/08/05 02:39:45;;;;;;;;;;;21.20;69.30;;;;;;4999219;28;920;-76
2023/08/05 02:42:10;;;;;;;;;;;21.20;69.30;;;;;;5002007;28;824;-76
2023/08/05 02:44:36;;;;;;;;;;;21.20;69.30;;;;;;4992746;28;1295;-76
2023/08/05 02:47:01;;;;;;;;;;;21.20;69.40;;;;;;4998480;28;785;-76
2023/08/05 02:49:27;;;;;;;;;;;21.20;69.30;;;;;;4997128;28;852;-76
2023/08/05 02:51:53;;;;;;;;;;;21.20;69.30;;;;;;5000390;28;1034;-76
2023/08/05 02:54:19;;;;;;;;;;;21.20;69.30;;;;;;4987841;28;1270;-76
2023/08/05 02:56:44;;;;;;;;;;;21.20;69.40;;;;;;5000613;28;1906;-76
2023/08/05 02:59:10;;;;;;;;;;;21.20;69.40;;;;;;5000261;28;906;-77
2023/08/05 03:01:36;;;;;;;;;;;21.20;69.30;;;;;;4999812;28;827;-76
2023/08/05 03:04:01;;;;;;;;;;;21.20;69.40;;;;;;5000929;28;1278;-76
2023/08/05 03:06:27;;;;;;;;;;;21.20;69.40;;;;;;5000136;28;1158;-77
2023/08/05 03:08:52;;;;;;;;;;;21.20;69.40;;;;;;5001338;28;1074;-77
2023/08/05 03:11:18;;;;;;;;;;;21.20;69.40;;;;;;4990175;28;1495;-77
2023/08/05 03:13:43;;;;;;;;;;;21.20;69.40;;;;;;5000068;28;1290;-77
2023/08/05 03:16:09;;;;;;;;;;;21.10;69.30;;;;;;4998021;28;987;-75
2023/08/05 03:18:35;;;;;;;;;;;21.20;69.40;;;;;;4997559;28;1956;-74
2023/08/05 03:21:00;;;;;;;;;;;21.20;69.40;;;;;;5000722;28;789;-73
2023/08/05 03:23:26;;;;;;;;;;;21.20;69.40;;;;;;5003862;28;1359;-74
2023/08/05 03:25:51;;;;;;;;;;;21.20;69.40;;;;;;5000118;28;1058;-74
2023/08/05 03:28:16;;;;;;;;;;;21.20;69.40;;;;;;4997610;28;1391;-74
2023/08/05 03:30:42;;;;;;;;;;;21.20;69.40;;;;;;4984367;28;1085;-74
2023/08/05 03:33:08;;;;;;;;;;;21.20;69.40;;;;;;4998555;28;813;-74
2023/08/05 03:35:33;;;;;;;;;;;21.20;69.40;;;;;;4998200;28;1387;-74
2023/08/05 03:37:58;;;;;;;;;;;21.20;69.40;;;;;;4996888;28;1906;-73
2023/08/05 03:40:24;;;;;;;;;;;21.20;69.40;;;;;;4996755;28;1007;-73
2023/08/05 03:42:49;;;;;;;;;;;21.20;69.40;;;;;;5001848;28;854;-73
2023/08/05 03:45:15;;;;;;;;;;;21.20;69.40;;;;;;5003193;28;1280;-73
2023/08/05 03:47:40;;;;;;;;;;;21.10;69.40;;;;;;4999021;28;816;-73
2023/08/05 03:50:08;;;;;;;;;;;21.20;69.40;;;;;;4998220;28;849;-74
2023/08/05 03:52:33;;;;;;;;;;;21.20;69.40;;;;;;5000035;28;765;-74
2023/08/05 03:54:59;;;;;;;;;;;21.20;69.40;;;;;;4998899;28;1344;-73
2023/08/05 03:57:24;;;;;;;;;;;21.20;69.40;;;;;;4999614;28;1910;-73
2023/08/05 03:59:50;;;;;;;;;;;21.20;69.40;;;;;;4999586;28;1315;-74
2023/08/05 04:02:15;;;;;;;;;;;21.20;69.40;;;;;;4997066;28;893;-74
2023/08/05 04:04:42;;;;;;;;;;;21.20;70.20;;;;;;4999972;28;1356;-73
2023/08/05 04:07:08;;;;;;;;;;;21.20;69.50;;;;;;4997914;28;950;-73
2023/08/05 04:09:35;;;;;;;;;;;21.20;69.40;;;;;;4999877;28;1256;-73
2023/08/05 04:12:04;;;;;;;;;;;21.20;69.40;;;;;;4997956;28;861;-72
2023/08/05 04:14:30;;;;;;;;;;;21.20;69.50;;;;;;4982317;28;1373;-73
2023/08/05 04:16:56;;;;;;;;;;;21.20;69.40;;;;;;4989923;28;1918;-73
2023/08/05 04:19:22;;;;;;;;;;;21.20;69.40;;;;;;4988812;28;1304;-73
2023/08/05 04:21:48;;;;;;;;;;;21.20;69.50;;;;;;4983890;28;955;-73
2023/08/05 04:24:13;;;;;;;;;;;21.20;69.50;;;;;;5000553;28;1284;-73
2023/08/05 04:26:40;;;;;;;;;;;21.20;69.50;;;;;;4993696;28;1244;-72
2023/08/05 04:29:05;;;;;;;;;;;21.20;69.50;;;;;;5001379;28;876;-73
2023/08/05 04:31:31;;;;;;;;;;;21.20;69.50;;;;;;4999410;28;877;-73
2023/08/05 04:33:56;;;;;;;;;;;21.20;69.50;;;;;;5002842;28;1264;-73
2023/08/05 04:36:22;;;;;;;;;;;21.10;69.50;;;;;;5006052;28;807;-73
2023/08/05 04:38:47;;;;;;;;;;;21.10;69.50;;;;;;5003426;28;1970;-73
2023/08/05 04:41:13;;;;;;;;;;;21.20;69.50;;;;;;5000558;28;2238;-69
2023/08/05 04:43:38;;;;;;;;;;;21.20;69.50;;;;;;4977644;28;2292;-69
2023/08/05 04:46:04;;;;;;;;;;;21.10;69.50;;;;;;5002756;28;1336;-69
2023/08/05 04:48:29;;;;;;;;;;;21.20;69.60;;;;;;4997871;28;989;-69
2023/08/05 04:50:55;;;;;;;;;;;21.20;69.60;;;;;;5000146;28;841;-70
2023/08/05 04:53:20;;;;;;;;;;;21.20;69.60;;;;;;5000727;28;1287;-70
2023/08/05 04:55:46;;;;;;;;;;;21.20;69.60;;;;;;5001578;28;899;-69
2023/08/05 04:58:11;;;;;;;;;;;21.20;69.60;;;;;;5000538;28;1968;-70
2023/08/05 05:00:37;;;;;;;;;;;21.20;69.60;;;;;;5003260;28;1413;-70
2023/08/05 05:03:03;;;;;;;;;;;21.20;69.60;;;;;;5004054;28;861;-69
2023/08/05 05:05:29;;;;;;;;;;;21.20;69.60;;;;;;5001861;28;1263;-71
2023/08/05 05:07:54;;;;;;;;;;;21.20;69.60;;;;;;4974907;28;1558;-70
2023/08/05 05:10:19;;;;;;;;;;;21.10;69.60;;;;;;4997592;28;844;-73
2023/08/05 05:12:45;;;;;;;;;;;21.20;69.60;;;;;;5002514;28;1031;-72
2023/08/05 05:15:10;;;;;;;;;;;21.10;69.60;;;;;;4999999;28;1360;-70
2023/08/05 05:17:36;;;;;;;;;;;21.20;69.70;;;;;;5004175;28;1894;-74
2023/08/05 05:20:04;;;;;;;;;;;21.20;69.60;;;;;;4987132;28;1341;-73
2023/08/05 05:22:30;;;;;;;;;;;21.20;69.70;;;;;;5000036;28;1081;-70
2023/08/05 05:24:56;;;;;;;;;;;21.20;69.70;;;;;;4988547;28;1268;-69
2023/08/05 05:27:21;;;;;;;;;;;21.20;69.70;;;;;;5001382;28;994;-69
2023/08/05 05:29:47;;;;;;;;;;;21.20;69.70;;;;;;5001008;28;852;-72
2023/08/05 05:32:12;;;;;;;;;;;21.10;69.60;;;;;;4984171;28;1643;-70
2023/08/05 05:34:38;;;;;;;;;;;21.10;69.60;;;;;;4999981;28;1202;-70
2023/08/05 05:37:03;;;;;;;;;;;21.20;69.70;;;;;;4982265;28;1966;-69
2023/08/05 05:39:29;;;;;;;;;;;21.10;70.40;;;;;;4985685;28;1628;-71
2023/08/05 05:41:57;;;;;;;;;;;21.10;69.60;;;;;;5003356;28;1269;-71
2023/08/05 05:44:23;;;;;;;;;;;21.10;69.60;;;;;;5001906;28;1468;-73
2023/08/05 05:46:48;;;;;;;;;;;21.10;69.60;;;;;;5004178;28;820;-72
2023/08/05 05:49:15;;;;;;;;;;;21.20;69.70;;;;;;4997909;28;786;-69
2023/08/05 05:51:42;;;;;;;;;;;21.10;69.60;;;;;;4999725;28;1325;-69
2023/08/05 05:54:07;;;;;;;;;;;21.20;69.70;;;;;;5000387;28;1312;-70
2023/08/05 05:56:33;;;;;;;;;;;21.10;69.70;;;;;;5001717;28;939;-72
2023/08/05 05:58:58;;;;;;;;;;;21.20;69.70;;;;;;5009344;28;1926;-71
2023/08/05 06:01:24;;;;;;;;;;;21.20;69.70;;;;;;5002696;28;832;-71
2023/08/05 06:03:50;;;;;;;;;;;21.10;69.30;;;;;;4997974;28;1369;-70
2023/08/05 06:06:15;;;;;;;;;;;21.20;69.10;;;;;;4990092;28;1304;-70
2023/08/05 06:08:41;;;;;;;;;;;21.10;68.90;;;;;;4997981;28;1113;-71
2023/08/05 06:11:07;;;;;;;;;;;21.10;68.90;;;;;;4992132;28;884;-72
2023/08/05 06:13:32;;;;;;;;;;;21.10;68.80;;;;;;4996397;28;1394;-72
2023/08/05 06:15:58;;;;;;;;;;;21.10;68.70;;;;;;4998013;28;808;-72
2023/08/05 06:18:23;;;;;;;;;;;21.10;68.60;;;;;;5003109;28;1886;-72
2023/08/05 06:20:49;;;;;;;;;;;21.10;68.60;;;;;;4997809;28;871;-71
2023/08/05 06:23:15;;;;;;;;;;;21.10;68.40;;;;;;4999648;28;884;-71
2023/08/05 06:25:41;;;;;;;;;;;21.10;68.20;;;;;;5000002;28;1418;-72
2023/08/05 06:28:06;;;;;;;;;;;21.20;68.00;;;;;;4998463;28;1333;-72
2023/08/05 06:30:32;;;;;;;;;;;21.10;67.80;;;;;;4998852;28;1274;-71
2023/08/05 06:32:57;;;;;;;;;;;21.10;67.70;;;;;;5001157;28;873;-71
2023/08/05 06:35:22;;;;;;;;;;;21.10;67.60;;;;;;4993199;28;1284;-71
2023/08/05 06:37:48;;;;;;;;;;;21.10;67.70;;;;;;4995305;28;1959;-71
2023/08/05 06:40:13;;;;;;;;;;;21.10;67.50;;;;;;4997721;28;880;-71
2023/08/05 06:42:39;;;;;;;;;;;21.10;67.40;;;;;;4994825;28;817;-71
2023/08/05 06:45:05;;;;;;;;;;;21.10;67.50;;;;;;4997289;28;1336;-71
2023/08/05 06:47:31;;;;;;;;;;;21.10;67.40;;;;;;4998810;28;852;-69
2023/08/05 06:49:57;;;;;;;;;;;21.10;67.20;;;;;;5001185;28;833;-70
2023/08/05 06:52:22;;;;;;;;;;;21.10;67.00;;;;;;5000619;28;1267;-70
2023/08/05 06:54:48;;;;;;;;;;;21.10;67.10;;;;;;4986257;28;1264;-69
2023/08/05 06:57:13;;;;;;;;;;;21.10;67.00;;;;;;5001607;28;1957;-69
2023/08/05 06:59:39;;;;;;;;;;;21.10;67.10;;;;;;4995897;28;887;-70
2023/08/05 07:02:04;;;;;;;;;;;21.10;67.10;;;;;;4998793;28;900;-70
2023/08/05 07:04:30;;;;;;;;;;;21.10;66.90;;;;;;5000350;28;1217;-71
2023/08/05 07:06:56;;;;;;;;;;;21.10;66.70;;;;;;4997592;28;2133;-71
2023/08/05 07:09:21;;;;;;;;;;;21.10;66.70;;;;;;4997631;28;1323;-71
2023/08/05 07:11:46;;;;;;;;;;;21.10;66.60;;;;;;4999688;28;1515;-70
2023/08/05 07:14:12;;;;;;;;;;;21.10;66.70;;;;;;4997364;28;1247;-70
2023/08/05 07:16:37;;;;;;;;;;;21.10;66.70;;;;;;4997334;28;856;-71
2023/08/05 07:19:03;;;;;;;;;;;21.10;66.70;;;;;;4999368;28;1968;-70
2023/08/05 07:21:28;;;;;;;;;;;21.10;66.70;;;;;;5000351;28;901;-71
2023/08/05 07:23:54;;;;;;;;;;;21.10;66.70;;;;;;4999160;28;1260;-71
2023/08/05 07:26:19;;;;;;;;;;;21.10;66.70;;;;;;4996744;28;1015;-70
2023/08/05 07:28:45;;;;;;;;;;;21.10;66.70;;;;;;4997080;28;1311;-71
2023/08/05 07:31:10;;;;;;;;;;;21.10;66.80;;;;;;4999010;28;828;-72
2023/08/05 07:33:36;;;;;;;;;;;21.10;66.80;;;;;;5000268;28;1307;-71
2023/08/05 07:36:10;;;;;;;;;;;21.10;66.80;;;;;;4992665;28;893;-70
2023/08/05 07:38:39;;;;;;;;;;;21.10;66.90;;;;;;4997807;28;1906;-71
2023/08/05 07:41:05;;;;;;;;;;;21.10;66.80;;;;;;4998565;28;844;-71
2023/08/05 07:43:33;;;;;;;;;;;21.10;66.80;;;;;;4997183;28;1358;-71
2023/08/05 07:45:59;;;;;;;;;;;21.10;66.90;;;;;;4995392;28;875;-71
2023/08/05 07:48:25;;;;;;;;;;;21.10;66.80;;;;;;4997336;28;869;-70
2023/08/05 07:50:50;;;;;;;;;;;21.10;66.80;;;;;;5001011;28;837;-71
2023/08/05 07:53:19;;;;;;;;;;;21.10;66.80;;;;;;5000915;28;1018;-71
2023/08/05 07:55:45;;;;;;;;;;;21.10;66.70;;;;;;4998290;28;848;-71
2023/08/05 07:58:11;;;;;;;;;;;21.10;66.70;;;;;;4998173;28;1910;-71
2023/08/05 08:00:39;;;;;;;;;;;21.10;66.60;;;;;;4994314;28;860;-70
2023/08/05 08:03:05;;;;;;;;;;;21.10;66.70;;;;;;4997102;28;888;-72
2023/08/05 08:05:30;;;;;;;;;;;21.10;66.80;;;;;;5002040;28;1347;-72
2023/08/05 08:07:56;;;;;;;;;;;21.10;66.70;;;;;;5002902;28;870;-71
2023/08/05 08:10:24;;;;;;;;;;;21.10;66.70;;;;;;4997889;28;883;-70
2023/08/05 08:12:51;;;;;;;;;;;21.10;66.70;;;;;;4996397;28;868;-71
2023/08/05 08:15:16;;;;;;;;;;;21.10;66.80;;;;;;4989276;28;1245;-71
2023/08/05 08:17:42;;;;;;;;;;;21.10;66.80;;;;;;5000302;28;1903;-70
2023/08/05 08:20:07;;;;;;;;;;;21.10;66.80;;;;;;4988905;28;1385;-71
2023/08/05 08:22:33;;;;;;;;;;;21.10;66.70;;;;;;4970776;28;1478;-70
2023/08/05 08:24:58;;;;;;;;;;;21.10;66.70;;;;;;4996261;28;1241;-70
2023/08/05 08:27:24;;;;;;;;;;;21.10;66.90;;;;;;4993596;28;1264;-70
2023/08/05 08:29:49;;;;;;;;;;;21.10;66.70;;;;;;4996836;28;1390;-70
2023/08/05 08:32:15;;;;;;;;;;;21.10;66.70;;;;;;4995876;28;1003;-70
2023/08/05 08:34:40;;;;;;;;;;;21.10;66.70;;;;;;4995331;28;1299;-70
2023/08/05 08:37:05;;;;;;;;;;;21.10;66.70;;;;;;4998333;28;1969;-71
2023/08/05 08:39:31;;;;;;;;;;;21.10;66.80;;;;;;4998289;28;872;-70
2023/08/05 08:41:56;;;;;;;;;;;21.10;66.80;;;;;;4998312;28;877;-70
2023/08/05 08:44:22;;;;;;;;;;;21.10;66.80;;;;;;5000236;28;1681;-71
2023/08/05 08:46:47;;;;;;;;;;;21.10;66.90;;;;;;4981864;28;832;-71
2023/08/05 08:49:13;;;;;;;;;;;21.10;66.90;;;;;;4988310;28;1023;-70
2023/08/05 08:51:38;;;;;;;;;;;21.10;66.90;;;;;;4996284;28;905;-70
2023/08/05 08:54:04;;;;;;;;;;;21.10;66.90;;;;;;4999096;28;1229;-70
2023/08/05 08:56:30;;;;;;;;;;;21.10;66.80;;;;;;4982732;28;880;-70
2023/08/05 08:58:55;;;;;;;;;;;21.10;66.80;;;;;;4998260;28;1969;-71
2023/08/05 09:01:21;;;;;;;;;;;21.10;66.80;;;;;;4996504;28;793;-70
2023/08/05 09:03:47;;;;;;;;;;;21.10;66.60;;;;;;4995361;28;1300;-70
2023/08/05 09:06:13;;;;;;;;;;;21.10;67.20;;;;;;4985066;28;1299;-72
2023/08/05 09:08:38;;;;;;;;;;;21.10;66.40;;;;;;5000409;28;1340;-71
2023/08/05 09:11:04;;;;;;;;;;;21.10;66.30;;;;;;5001887;28;1346;-71
2023/08/05 09:13:29;;;;;;;;;;;21.10;66.30;;;;;;5001168;28;1868;-72
2023/08/05 09:15:55;;;;;;;;;;;21.10;66.30;;;;;;5002634;28;2120;-71
2023/08/05 09:18:20;;;;;;;;;;;21.10;66.30;;;;;;4982535;28;1949;-71
2023/08/05 09:20:48;;;;;;;;;;;21.10;66.30;;;;;;5002588;28;1290;-71
2023/08/05 09:23:15;;;;;;;;;;;21.10;66.20;;;;;;5003721;28;907;-71
2023/08/05 09:25:41;;;;;;;;;;;21.10;66.30;;;;;;4999173;28;2123;-72
2023/08/05 09:28:07;;;;;;;;;;;21.10;66.30;;;;;;4998016;28;2142;-71
2023/08/05 09:30:33;;;;;;;;;;;21.10;66.30;;;;;;5000373;28;1200;-70
2023/08/05 09:32:59;;;;;;;;;;;21.10;66.30;;;;;;4998762;28;1348;-71
2023/08/05 09:35:25;;;;;;;;;;;21.10;66.20;;;;;;4986242;28;1298;-71
2023/08/05 09:37:52;;;;;;;;;;;21.10;66.20;;;;;;4991862;28;1894;-71
2023/08/05 09:40:28;;;;;;;;;;;21.10;66.20;;;;;;4985957;28;946;-71
2023/08/05 09:42:57;;;;;;;;;;;21.10;66.10;;;;;;5000012;28;817;-71
2023/08/05 09:45:24;;;;;;;;;;;21.10;66.20;;;;;;5000771;28;1385;-72
2023/08/05 09:47:52;;;;;;;;;;;21.10;66.20;;;;;;4985268;28;896;-73
2023/08/05 09:50:18;;;;;;;;;;;21.10;66.10;;;;;;4999635;28;1176;-70
2023/08/05 09:52:43;;;;;;;;;;;21.10;66.10;;;;;;4988005;28;822;-70
2023/08/05 09:55:13;;;;;;;;;;;21.10;66.20;;;;;;4983479;28;1280;-71
2023/08/05 09:57:39;;;;;;;;;;;21.10;66.20;;;;;;5001519;28;1973;-70
2023/08/05 10:00:08;;;;;;;;;;;21.10;66.20;;;;;;5002818;28;871;-70
2023/08/05 10:02:34;;;;;;;;;;;21.10;65.80;;;;;;4991469;28;1266;-71
2023/08/05 10:04:59;;;;;;;;;;;21.10;65.90;;;;;;5001480;28;1432;-71
2023/08/05 10:07:25;;;;;;;;;;;21.10;66.10;;;;;;4988989;28;1706;-71
2023/08/05 10:09:51;;;;;;;;;;;21.10;66.20;;;;;;5002514;28;1185;-71
2023/08/05 10:12:17;;;;;;;;;;;21.10;66.20;;;;;;5002130;28;831;-71
2023/08/05 10:14:42;;;;;;;;;;;21.10;66.80;;;;;;4998130;28;1253;-71
2023/08/05 10:17:08;;;;;;;;;;;21.10;66.00;;;;;;4994711;28;1895;-71
2023/08/05 10:19:33;;;;;;;;;;;21.10;65.90;;;;;;5001171;28;1242;-71
2023/08/05 10:22:10;;;;;;;;;;;21.10;66.00;;;;;;4995849;28;1497;-71
2023/08/05 10:24:51;;;;;;;;;;;21.10;65.80;;;;;;4996530;28;1383;-71
2023/08/05 10:27:16;;;;;;;;;;;21.10;65.70;;;;;;4999766;28;1306;-71
2023/08/05 10:29:54;;;;;;;;;;;21.10;65.70;;;;;;5000153;28;1023;-71
2023/08/05 10:32:26;;;;;;;;;;;21.10;65.70;;;;;;4999216;28;1408;-71
2023/08/05 10:35:10;;;;;;;;;;;21.10;65.80;;;;;;4986345;28;1247;-71
2023/08/05 10:37:48;;;;;;;;;;;21.10;66.00;;;;;;4998918;28;1906;-71
2023/08/05 10:40:23;;;;;;;;;;;21.10;66.10;;;;;;5000059;28;1470;-71
2023/08/05 10:42:48;;;;;;;;;;;21.10;66.10;;;;;;4983512;28;1196;-71
2023/08/05 10:45:14;;;;;;;;;;;21.10;66.20;;;;;;4999391;28;1276;-71
2023/08/05 10:47:45;;;;;;;;;;;21.10;66.30;;;;;;5000208;28;991;-71
2023/08/05 10:50:12;;;;;;;;;;;21.10;66.20;;;;;;4982380;28;865;-71
2023/08/05 10:52:38;;;;;;;;;;;21.10;66.40;;;;;;4997669;28;832;-71
2023/08/05 10:55:07;;;;;;;;;;;21.10;66.40;;;;;;4993081;28;1269;-71
2023/08/05 10:57:33;;;;;;;;;;;21.10;66.40;;;;;;4996010;28;1977;-71
2023/08/05 10:59:59;;;;;;;;;;;21.10;66.40;;;;;;4998702;28;996;-71
2023/08/05 11:02:25;;;;;;;;;;;21.10;66.30;;;;;;4983310;28;1034;-71
2023/08/05 11:04:50;;;;;;;;;;;21.10;66.30;;;;;;4995466;28;1375;-71
2023/08/05 11:07:16;;;;;;;;;;;21.10;66.30;;;;;;4973629;28;1153;-70
2023/08/05 11:09:41;;;;;;;;;;;21.10;66.20;;;;;;4999654;28;876;-71
2023/08/05 11:12:07;;;;;;;;;;;21.10;66.00;;;;;;4996150;28;935;-70
2023/08/05 11:14:32;;;;;;;;;;;21.10;65.90;;;;;;4996921;28;1362;-70
2023/08/05 11:17:07;;;;;;;;;;;21.10;65.90;;;;;;4995086;28;1890;-70
2023/08/05 11:19:51;;;;;;;;;;;21.10;66.10;;;;;;4995578;28;1395;-70
2023/08/05 11:22:26;;;;;;;;;;;21.10;66.00;;;;;;4999735;28;805;-70
2023/08/05 11:25:01;;;;;;;;;;;21.10;66.00;;;;;;4997193;28;2018;-72
2023/08/05 11:27:29;;;;;;;;;;;21.10;66.00;;;;;;5001413;28;1432;-71
2023/08/05 11:29:54;;;;;;;;;;;21.10;66.10;;;;;;4997312;28;1225;-71
2023/08/05 11:32:20;;;;;;;;;;;21.10;66.20;;;;;;4995564;28;1015;-71
2023/08/05 11:34:45;;;;;;;;;;;21.10;66.10;;;;;;4998786;28;1279;-71
2023/08/05 11:37:11;;;;;;;;;;;21.10;65.80;;;;;;4982930;28;1964;-71
2023/08/05 11:39:36;;;;;;;;;;;21.10;65.30;;;;;;4998809;28;842;-71
2023/08/05 11:42:02;;;;;;;;;;;21.10;65.50;;;;;;4998991;28;973;-70
2023/08/05 11:44:27;;;;;;;;;;;21.10;65.50;;;;;;4998885;28;1256;-71
2023/08/05 11:46:53;;;;;;;;;;;21.10;65.70;;;;;;4997741;28;921;-71
2023/08/05 11:49:18;;;;;;;;;;;21.10;65.60;;;;;;5000431;28;1003;-71
2023/08/05 11:51:47;;;;;;;;;;;21.10;65.60;;;;;;4996971;28;855;-71
2023/08/05 11:54:13;;;;;;;;;;;21.10;65.50;;;;;;4999371;28;1325;-71
2023/08/05 11:56:38;;;;;;;;;;;21.10;65.40;;;;;;4997986;28;1223;-70
2023/08/05 11:59:03;;;;;;;;;;;21.20;65.60;;;;;;4996106;28;1980;-71
2023/08/05 12:01:29;;;;;;;;;;;21.20;65.70;;;;;;4997571;28;828;-71
2023/08/05 12:03:57;;;;;;;;;;;21.10;65.90;;;;;;4996517;28;1248;-71
2023/08/05 12:06:26;;;;;;;;;;;21.20;66.00;;;;;;4995509;28;845;-71
2023/08/05 12:08:52;;;;;;;;;;;21.20;66.10;;;;;;4996610;28;852;-71
2023/08/05 12:11:17;;;;;;;;;;;21.20;66.30;;;;;;4981981;28;1291;-70
2023/08/05 12:13:44;;;;;;;;;;;21.20;66.30;;;;;;4994850;28;1220;-70
2023/08/05 12:16:16;;;;;;;;;;;21.20;66.10;;;;;;4984178;28;856;-71
2023/08/05 12:18:44;;;;;;;;;;;21.20;65.70;;;;;;4998651;28;1910;-71
2023/08/05 12:21:10;;;;;;;;;;;21.20;65.90;;;;;;4998681;28;873;-71
2023/08/05 12:23:40;;;;;;;;;;;21.20;66.00;;;;;;4997277;28;1295;-70
2023/08/05 12:26:06;;;;;;;;;;;21.10;66.00;;;;;;4995127;28;930;-71
2023/08/05 12:28:32;;;;;;;;;;;21.20;65.90;;;;;;4979586;28;1150;-71
2023/08/05 12:30:57;;;;;;;;;;;21.20;65.90;;;;;;4996862;28;880;-70
2023/08/05 12:33:22;;;;;;;;;;;21.10;65.80;;;;;;4995455;28;1916;-71
2023/08/05 12:35:48;;;;;;;;;;;21.20;65.80;;;;;;4987954;28;836;-70
2023/08/05 12:38:13;;;;;;;;;;;21.10;65.80;;;;;;4996595;28;1957;-71
2023/08/05 12:40:39;;;;;;;;;;;21.10;65.80;;;;;;4999879;28;915;-70
2023/08/05 12:43:04;;;;;;;;;;;21.10;65.70;;;;;;5000117;28;920;-71
2023/08/05 12:45:30;;;;;;;;;;;21.10;65.70;;;;;;5000748;28;1307;-71
2023/08/05 12:47:55;;;;;;;;;;;21.10;65.70;;;;;;5000233;28;853;-71
2023/08/05 12:50:21;;;;;;;;;;;21.20;65.70;;;;;;5003796;28;884;-70
2023/08/05 12:52:46;;;;;;;;;;;21.10;65.70;;;;;;5005946;28;852;-70
2023/08/05 12:55:12;;;;;;;;;;;21.10;65.80;;;;;;4994987;28;1294;-71
2023/08/05 12:57:37;;;;;;;;;;;21.10;65.50;;;;;;5004959;28;1910;-71
2023/08/05 13:00:03;;;;;;;;;;;21.10;65.60;;;;;;5001695;28;837;-71
2023/08/05 13:02:28;;;;;;;;;;;21.10;65.60;;;;;;4996898;28;911;-70
2023/08/05 13:04:54;;;;;;;;;;;21.20;65.80;;;;;;5003218;28;1244;-71
2023/08/05 13:07:20;;;;;;;;;;;21.10;65.70;;;;;;4984309;28;936;-70
2023/08/05 13:09:45;;;;;;;;;;;21.10;65.70;;;;;;5000429;28;790;-70
2023/08/05 13:12:11;;;;;;;;;;;21.10;65.80;;;;;;5002149;28;854;-70
2023/08/05 13:14:37;;;;;;;;;;;21.10;65.70;;;;;;5001943;28;1263;-70
2023/08/05 13:17:02;;;;;;;;;;;21.10;65.90;;;;;;5000008;28;1895;-71
2023/08/05 13:19:28;;;;;;;;;;;21.10;65.90;;;;;;5000636;28;1084;-71
2023/08/05 13:21:53;;;;;;;;;;;21.10;66.00;;;;;;4987718;28;872;-70
2023/08/05 13:24:19;;;;;;;;;;;21.10;66.10;;;;;;5001000;28;1358;-70
2023/08/05 13:26:44;;;;;;;;;;;21.10;66.20;;;;;;5001776;28;885;-70
2023/08/05 13:29:10;;;;;;;;;;;21.10;66.30;;;;;;4999252;28;1444;-71
2023/08/05 13:31:35;;;;;;;;;;;21.10;66.90;;;;;;5002042;28;936;-71
2023/08/05 13:34:00;;;;;;;;;;;21.10;66.20;;;;;;5000776;28;1394;-70
2023/08/05 13:36:26;;;;;;;;;;;21.10;66.30;;;;;;4985660;28;812;-70
2023/08/05 13:38:51;;;;;;;;;;;21.10;66.50;;;;;;5001673;28;1910;-70
2023/08/05 13:41:17;;;;;;;;;;;21.10;66.40;;;;;;4999855;28;925;-71
2023/08/05 13:43:42;;;;;;;;;;;21.10;66.50;;;;;;4999872;28;1307;-70
2023/08/05 13:46:08;;;;;;;;;;;21.10;66.40;;;;;;4998973;28;822;-70
2023/08/05 13:48:35;;;;;;;;;;;21.10;66.50;;;;;;5000594;28;876;-70
2023/08/05 13:51:01;;;;;;;;;;;21.10;66.50;;;;;;5001727;28;835;-71
2023/08/05 13:53:26;;;;;;;;;;;21.10;66.60;;;;;;4997905;28;1362;-70
2023/08/05 13:55:55;;;;;;;;;;;21.10;66.70;;;;;;4998190;28;873;-70
2023/08/05 13:58:21;;;;;;;;;;;21.10;66.60;;;;;;4985253;28;1906;-70
2023/08/05 14:00:46;;;;;;;;;;;21.10;66.70;;;;;;4999971;28;893;-70
2023/08/05 14:03:12;;;;;;;;;;;21.10;66.70;;;;;;4998985;28;888;-70
2023/08/05 14:05:37;;;;;;;;;;;21.10;66.70;;;;;;4998830;28;1335;-70
2023/08/05 14:08:03;;;;;;;;;;;21.10;66.60;;;;;;5001379;28;873;-70
2023/08/05 14:10:28;;;;;;;;;;;21.10;66.50;;;;;;5000789;28;879;-70
2023/08/05 14:12:54;;;;;;;;;;;21.10;66.20;;;;;;4986623;28;952;-70
2023/08/05 14:15:19;;;;;;;;;;;21.10;66.10;;;;;;5000753;28;1285;-70
2023/08/05 14:17:45;;;;;;;;;;;21.10;65.90;;;;;;5000816;28;1898;-69
2023/08/05 14:20:10;;;;;;;;;;;21.10;65.90;;;;;;5000199;28;990;-70
2023/08/05 14:22:36;;;;;;;;;;;21.10;65.90;;;;;;5001480;28;818;-70
2023/08/05 14:25:01;;;;;;;;;;;21.10;66.10;;;;;;5002987;28;1268;-70
2023/08/05 14:27:27;;;;;;;;;;;21.10;66.10;;;;;;4999426;28;1275;-70
2023/08/05 14:29:52;;;;;;;;;;;21.10;66.90;;;;;;4998558;28;857;-70